Terminal Aerodrome Forecast
Issued by NWS

Home | Current Version | Previous Version | Graphics & Text | Print | Product List | Glossary On
Versions: 1 2 3 4 5 6 7 8 9 10 11 12 13 14 15
000
FTUS43 KMPX 010520
TAFRWF
TAF
KRWF 010520Z 0106/0206 09005KT P6SM SCT050
     FM010800 11003KT 6SM BR SCT025 BKN050
     FM011400 11006KT P6SM BKN050 BKN100=

USA.gov is the U.S. government's official web portal to all federal, state and local government web resources and services.